sensor_id;sensor_type;location;lat;lon;timestamp;P1;durP1;ratioP1;P2;durP2;ratioP2
4911;SDS011;2471;47.056;8.350;2022-12-18T00:00:42;80.20;;;33.80;;
4911;SDS011;2471;47.056;8.350;2022-12-18T00:03:08;73.27;;;33.30;;
4911;SDS011;2471;47.056;8.350;2022-12-18T00:05:35;69.03;;;31.50;;
4911;SDS011;2471;47.056;8.350;2022-12-18T00:08:01;71.23;;;32.07;;
4911;SDS011;2471;47.056;8.350;2022-12-18T00:10:28;66.53;;;29.50;;
4911;SDS011;2471;47.056;8.350;2022-12-18T00:12:54;72.80;;;30.67;;
4911;SDS011;2471;47.056;8.350;2022-12-18T00:15:20;66.77;;;33.47;;
4911;SDS011;2471;47.056;8.350;2022-12-18T00:17:47;63.73;;;29.90;;
4911;SDS011;2471;47.056;8.350;2022-12-18T00:20:13;69.70;;;30.73;;
4911;SDS011;2471;47.056;8.350;2022-12-18T00:22:39;70.20;;;31.13;;
4911;SDS011;2471;47.056;8.350;2022-12-18T00:25:05;64.70;;;29.30;;
4911;SDS011;2471;47.056;8.350;2022-12-18T00:27:31;61.87;;;26.27;;
4911;SDS011;2471;47.056;8.350;2022-12-18T00:29:57;58.60;;;26.17;;
4911;SDS011;2471;47.056;8.350;2022-12-18T00:32:23;57.27;;;26.63;;
4911;SDS011;2471;47.056;8.350;2022-12-18T00:34:49;55.27;;;26.50;;
4911;SDS011;2471;47.056;8.350;2022-12-18T00:37:15;64.27;;;26.70;;
4911;SDS011;2471;47.056;8.350;2022-12-18T00:39:41;61.43;;;25.17;;
4911;SDS011;2471;47.056;8.350;2022-12-18T00:42:07;54.57;;;25.57;;
4911;SDS011;2471;47.056;8.350;2022-12-18T00:44:54;60.80;;;25.43;;
4911;SDS011;2471;47.056;8.350;2022-12-18T00:47:20;50.47;;;23.23;;
4911;SDS011;2471;47.056;8.350;2022-12-18T00:49:46;61.43;;;26.60;;
4911;SDS011;2471;47.056;8.350;2022-12-18T00:52:12;67.60;;;26.17;;
4911;SDS011;2471;47.056;8.350;2022-12-18T00:54:38;59.03;;;25.63;;
4911;SDS011;2471;47.056;8.350;2022-12-18T00:57:04;55.80;;;26.60;;
4911;SDS011;2471;47.056;8.350;2022-12-18T00:59:30;58.17;;;25.47;;
4911;SDS011;2471;47.056;8.350;2022-12-18T01:01:56;60.03;;;26.43;;
4911;SDS011;2471;47.056;8.350;2022-12-18T01:04:22;61.00;;;26.17;;
4911;SDS011;2471;47.056;8.350;2022-12-18T01:06:48;62.47;;;26.27;;
4911;SDS011;2471;47.056;8.350;2022-12-18T01:09:13;61.17;;;26.87;;
4911;SDS011;2471;47.056;8.350;2022-12-18T01:11:40;54.57;;;24.60;;
4911;SDS011;2471;47.056;8.350;2022-12-18T01:14:06;60.30;;;25.47;;
4911;SDS011;2471;47.056;8.350;2022-12-18T01:16:32;64.53;;;28.10;;
4911;SDS011;2471;47.056;8.350;2022-12-18T01:18:58;64.30;;;27.10;;
4911;SDS011;2471;47.056;8.350;2022-12-18T01:21:24;63.87;;;25.57;;
4911;SDS011;2471;47.056;8.350;2022-12-18T01:23:51;52.97;;;24.50;;
4911;SDS011;2471;47.056;8.350;2022-12-18T01:26:17;54.50;;;24.10;;
4911;SDS011;2471;47.056;8.350;2022-12-18T01:28:43;49.17;;;24.13;;
4911;SDS011;2471;47.056;8.350;2022-12-18T01:31:13;50.03;;;23.57;;
4911;SDS011;2471;47.056;8.350;2022-12-18T01:33:39;66.50;;;27.83;;
4911;SDS011;2471;47.056;8.350;2022-12-18T01:36:05;58.50;;;26.27;;
4911;SDS011;2471;47.056;8.350;2022-12-18T01:38:31;61.47;;;27.20;;
4911;SDS011;2471;47.056;8.350;2022-12-18T01:40:58;75.30;;;32.20;;
4911;SDS011;2471;47.056;8.350;2022-12-18T01:46:09;60.10;;;28.30;;
4911;SDS011;2471;47.056;8.350;2022-12-18T01:48:35;66.43;;;28.00;;
4911;SDS011;2471;47.056;8.350;2022-12-18T01:51:01;64.50;;;28.47;;
4911;SDS011;2471;47.056;8.350;2022-12-18T01:53:27;66.40;;;28.57;;
4911;SDS011;2471;47.056;8.350;2022-12-18T01:55:54;61.30;;;26.73;;
4911;SDS011;2471;47.056;8.350;2022-12-18T01:58:22;76.90;;;32.77;;
4911;SDS011;2471;47.056;8.350;2022-12-18T02:00:49;72.03;;;29.70;;
4911;SDS011;2471;47.056;8.350;2022-12-18T02:03:15;58.70;;;26.87;;
4911;SDS011;2471;47.056;8.350;2022-12-18T02:08:21;66.70;;;29.27;;
4911;SDS011;2471;47.056;8.350;2022-12-18T02:16:03;62.97;;;28.50;;
4911;SDS011;2471;47.056;8.350;2022-12-18T02:18:41;65.57;;;29.33;;
4911;SDS011;2471;47.056;8.350;2022-12-18T02:24:01;55.87;;;26.27;;
4911;SDS011;2471;47.056;8.350;2022-12-18T02:26:36;61.17;;;24.63;;
4911;SDS011;2471;47.056;8.350;2022-12-18T02:29:05;58.27;;;25.67;;
4911;SDS011;2471;47.056;8.350;2022-12-18T02:31:34;57.80;;;25.57;;
4911;SDS011;2471;47.056;8.350;2022-12-18T02:34:02;63.27;;;25.87;;
4911;SDS011;2471;47.056;8.350;2022-12-18T02:36:29;63.60;;;28.07;;
4911;SDS011;2471;47.056;8.350;2022-12-18T02:38:56;53.40;;;24.17;;
4911;SDS011;2471;47.056;8.350;2022-12-18T02:41:24;52.87;;;22.30;;
4911;SDS011;2471;47.056;8.350;2022-12-18T02:43:53;48.90;;;21.30;;
4911;SDS011;2471;47.056;8.350;2022-12-18T02:46:25;50.17;;;21.47;;
4911;SDS011;2471;47.056;8.350;2022-12-18T02:48:53;48.40;;;21.43;;
4911;SDS011;2471;47.056;8.350;2022-12-18T02:51:29;48.27;;;20.23;;
4911;SDS011;2471;47.056;8.350;2022-12-18T02:53:58;51.40;;;22.20;;
4911;SDS011;2471;47.056;8.350;2022-12-18T02:56:28;46.50;;;22.07;;
4911;SDS011;2471;47.056;8.350;2022-12-18T02:59:07;44.27;;;18.67;;
4911;SDS011;2471;47.056;8.350;2022-12-18T03:04:02;44.27;;;19.97;;
4911;SDS011;2471;47.056;8.350;2022-12-18T03:06:30;54.30;;;21.07;;
4911;SDS011;2471;47.056;8.350;2022-12-18T03:09:07;45.27;;;20.20;;
4911;SDS011;2471;47.056;8.350;2022-12-18T03:11:36;45.83;;;21.00;;
4911;SDS011;2471;47.056;8.350;2022-12-18T03:14:26;46.37;;;20.70;;
4911;SDS011;2471;47.056;8.350;2022-12-18T03:16:54;47.63;;;18.90;;
4911;SDS011;2471;47.056;8.350;2022-12-18T03:19:26;43.47;;;19.40;;
4911;SDS011;2471;47.056;8.350;2022-12-18T03:21:54;45.60;;;18.90;;
4911;SDS011;2471;47.056;8.350;2022-12-18T03:24:21;37.50;;;17.67;;
4911;SDS011;2471;47.056;8.350;2022-12-18T03:26:49;41.50;;;19.73;;
4911;SDS011;2471;47.056;8.350;2022-12-18T03:29:24;45.30;;;19.20;;
4911;SDS011;2471;47.056;8.350;2022-12-18T03:31:53;45.53;;;20.60;;
4911;SDS011;2471;47.056;8.350;2022-12-18T03:34:22;44.73;;;18.53;;
4911;SDS011;2471;47.056;8.350;2022-12-18T03:36:49;42.50;;;19.30;;
4911;SDS011;2471;47.056;8.350;2022-12-18T03:39:15;48.23;;;19.47;;
4911;SDS011;2471;47.056;8.350;2022-12-18T03:41:43;51.60;;;17.10;;
4911;SDS011;2471;47.056;8.350;2022-12-18T03:44:14;46.43;;;18.83;;
4911;SDS011;2471;47.056;8.350;2022-12-18T03:49:15;38.07;;;17.10;;
4911;SDS011;2471;47.056;8.350;2022-12-18T03:51:48;44.27;;;20.27;;
4911;SDS011;2471;47.056;8.350;2022-12-18T03:54:15;40.53;;;16.93;;
4911;SDS011;2471;47.056;8.350;2022-12-18T03:56:43;43.00;;;19.40;;
4911;SDS011;2471;47.056;8.350;2022-12-18T03:59:10;46.50;;;19.40;;
4911;SDS011;2471;47.056;8.350;2022-12-18T04:01:38;43.20;;;17.03;;
4911;SDS011;2471;47.056;8.350;2022-12-18T04:04:05;41.87;;;17.27;;
4911;SDS011;2471;47.056;8.350;2022-12-18T04:06:35;45.43;;;19.23;;
4911;SDS011;2471;47.056;8.350;2022-12-18T04:09:01;43.67;;;19.70;;
4911;SDS011;2471;47.056;8.350;2022-12-18T04:11:28;45.33;;;18.27;;
4911;SDS011;2471;47.056;8.350;2022-12-18T04:13:57;42.27;;;18.87;;
4911;SDS011;2471;47.056;8.350;2022-12-18T04:16:24;38.43;;;15.73;;
4911;SDS011;2471;47.056;8.350;2022-12-18T04:18:50;39.83;;;17.40;;
4911;SDS011;2471;47.056;8.350;2022-12-18T04:21:16;40.33;;;17.20;;
4911;SDS011;2471;47.056;8.350;2022-12-18T04:23:42;48.73;;;18.13;;
4911;SDS011;2471;47.056;8.350;2022-12-18T04:26:08;42.27;;;18.27;;
4911;SDS011;2471;47.056;8.350;2022-12-18T04:28:34;36.60;;;16.60;;
4911;SDS011;2471;47.056;8.350;2022-12-18T04:31:00;45.57;;;19.40;;
4911;SDS011;2471;47.056;8.350;2022-12-18T04:33:26;40.20;;;17.40;;
4911;SDS011;2471;47.056;8.350;2022-12-18T04:35:52;46.00;;;19.77;;
4911;SDS011;2471;47.056;8.350;2022-12-18T04:38:18;40.90;;;18.27;;
4911;SDS011;2471;47.056;8.350;2022-12-18T04:40:44;40.10;;;16.50;;
4911;SDS011;2471;47.056;8.350;2022-12-18T04:43:10;41.03;;;16.50;;
4911;SDS011;2471;47.056;8.350;2022-12-18T04:45:36;42.70;;;17.83;;
4911;SDS011;2471;47.056;8.350;2022-12-18T04:48:02;41.00;;;17.80;;
4911;SDS011;2471;47.056;8.350;2022-12-18T04:50:29;42.93;;;18.17;;
4911;SDS011;2471;47.056;8.350;2022-12-18T04:52:55;41.00;;;17.00;;
4911;SDS011;2471;47.056;8.350;2022-12-18T04:55:24;40.23;;;17.20;;
4911;SDS011;2471;47.056;8.350;2022-12-18T04:57:50;41.93;;;18.10;;
4911;SDS011;2471;47.056;8.350;2022-12-18T05:00:16;40.17;;;16.70;;
4911;SDS011;2471;47.056;8.350;2022-12-18T05:02:42;48.17;;;15.90;;
4911;SDS011;2471;47.056;8.350;2022-12-18T05:05:08;48.03;;;17.37;;
4911;SDS011;2471;47.056;8.350;2022-12-18T05:07:35;35.53;;;16.60;;
4911;SDS011;2471;47.056;8.350;2022-12-18T05:10:01;39.50;;;16.10;;
4911;SDS011;2471;47.056;8.350;2022-12-18T05:12:27;42.50;;;16.63;;
4911;SDS011;2471;47.056;8.350;2022-12-18T05:14:53;41.33;;;16.00;;
4911;SDS011;2471;47.056;8.350;2022-12-18T05:17:19;37.10;;;14.90;;
4911;SDS011;2471;47.056;8.350;2022-12-18T05:19:45;42.37;;;17.47;;
4911;SDS011;2471;47.056;8.350;2022-12-18T05:22:11;38.67;;;15.80;;
4911;SDS011;2471;47.056;8.350;2022-12-18T05:24:37;34.17;;;16.00;;
4911;SDS011;2471;47.056;8.350;2022-12-18T05:27:03;37.20;;;16.13;;
4911;SDS011;2471;47.056;8.350;2022-12-18T05:29:29;39.60;;;15.60;;
4911;SDS011;2471;47.056;8.350;2022-12-18T05:31:55;44.63;;;17.00;;
4911;SDS011;2471;47.056;8.350;2022-12-18T05:34:21;33.00;;;13.83;;
4911;SDS011;2471;47.056;8.350;2022-12-18T05:36:47;42.47;;;16.50;;
4911;SDS011;2471;47.056;8.350;2022-12-18T05:39:13;40.00;;;16.90;;
4911;SDS011;2471;47.056;8.350;2022-12-18T05:41:38;37.87;;;15.83;;
4911;SDS011;2471;47.056;8.350;2022-12-18T05:44:04;34.47;;;16.00;;
4911;SDS011;2471;47.056;8.350;2022-12-18T05:46:30;35.83;;;16.03;;
4911;SDS011;2471;47.056;8.350;2022-12-18T05:48:59;37.97;;;14.47;;
4911;SDS011;2471;47.056;8.350;2022-12-18T05:51:25;35.03;;;15.73;;
4911;SDS011;2471;47.056;8.350;2022-12-18T05:53:51;45.43;;;16.50;;
4911;SDS011;2471;47.056;8.350;2022-12-18T05:56:19;39.07;;;17.17;;
4911;SDS011;2471;47.056;8.350;2022-12-18T05:58:45;33.93;;;16.20;;
4911;SDS011;2471;47.056;8.350;2022-12-18T06:01:19;40.10;;;16.67;;
4911;SDS011;2471;47.056;8.350;2022-12-18T06:03:45;38.60;;;15.93;;
4911;SDS011;2471;47.056;8.350;2022-12-18T06:08:40;33.93;;;14.40;;
4911;SDS011;2471;47.056;8.350;2022-12-18T06:11:06;38.43;;;14.40;;
4911;SDS011;2471;47.056;8.350;2022-12-18T06:13:32;33.00;;;14.70;;
4911;SDS011;2471;47.056;8.350;2022-12-18T06:15:59;41.57;;;14.87;;
4911;SDS011;2471;47.056;8.350;2022-12-18T06:18:27;33.93;;;14.27;;
4911;SDS011;2471;47.056;8.350;2022-12-18T06:20:56;30.93;;;13.47;;
4911;SDS011;2471;47.056;8.350;2022-12-18T06:23:22;35.90;;;15.33;;
4911;SDS011;2471;47.056;8.350;2022-12-18T06:25:48;34.93;;;14.27;;
4911;SDS011;2471;47.056;8.350;2022-12-18T06:28:14;37.07;;;13.43;;
4911;SDS011;2471;47.056;8.350;2022-12-18T06:30:43;34.53;;;13.70;;
4911;SDS011;2471;47.056;8.350;2022-12-18T06:33:09;37.07;;;15.47;;
4911;SDS011;2471;47.056;8.350;2022-12-18T06:35:35;26.60;;;12.90;;
4911;SDS011;2471;47.056;8.350;2022-12-18T06:38:01;36.70;;;14.67;;
4911;SDS011;2471;47.056;8.350;2022-12-18T06:40:28;29.60;;;13.20;;
4911;SDS011;2471;47.056;8.350;2022-12-18T06:42:54;26.90;;;12.30;;
4911;SDS011;2471;47.056;8.350;2022-12-18T06:45:20;29.13;;;12.93;;
4911;SDS011;2471;47.056;8.350;2022-12-18T06:47:46;31.53;;;14.67;;
4911;SDS011;2471;47.056;8.350;2022-12-18T06:50:12;30.67;;;12.50;;
4911;SDS011;2471;47.056;8.350;2022-12-18T06:52:39;30.03;;;13.43;;
4911;SDS011;2471;47.056;8.350;2022-12-18T06:55:06;38.60;;;15.83;;
4911;SDS011;2471;47.056;8.350;2022-12-18T06:57:35;30.50;;;13.77;;
4911;SDS011;2471;47.056;8.350;2022-12-18T07:00:02;34.60;;;14.47;;
4911;SDS011;2471;47.056;8.350;2022-12-18T07:02:28;28.97;;;13.37;;
4911;SDS011;2471;47.056;8.350;2022-12-18T07:04:53;37.03;;;14.77;;
4911;SDS011;2471;47.056;8.350;2022-12-18T07:07:19;33.93;;;13.60;;
4911;SDS011;2471;47.056;8.350;2022-12-18T07:09:45;39.40;;;15.20;;
4911;SDS011;2471;47.056;8.350;2022-12-18T07:12:11;30.77;;;13.20;;
4911;SDS011;2471;47.056;8.350;2022-12-18T07:14:37;33.37;;;14.27;;
4911;SDS011;2471;47.056;8.350;2022-12-18T07:17:03;40.47;;;16.73;;
4911;SDS011;2471;47.056;8.350;2022-12-18T07:19:29;36.80;;;14.37;;
4911;SDS011;2471;47.056;8.350;2022-12-18T07:21:55;34.63;;;14.40;;
4911;SDS011;2471;47.056;8.350;2022-12-18T07:24:21;39.47;;;15.47;;
4911;SDS011;2471;47.056;8.350;2022-12-18T07:26:47;32.87;;;14.80;;
4911;SDS011;2471;47.056;8.350;2022-12-18T07:29:13;33.07;;;14.17;;
4911;SDS011;2471;47.056;8.350;2022-12-18T07:31:39;34.50;;;13.70;;
4911;SDS011;2471;47.056;8.350;2022-12-18T07:34:05;36.27;;;15.67;;
4911;SDS011;2471;47.056;8.350;2022-12-18T07:36:35;33.87;;;15.73;;
4911;SDS011;2471;47.056;8.350;2022-12-18T07:39:01;39.50;;;15.97;;
4911;SDS011;2471;47.056;8.350;2022-12-18T07:41:26;34.13;;;15.30;;
4911;SDS011;2471;47.056;8.350;2022-12-18T07:43:52;37.10;;;14.33;;
4911;SDS011;2471;47.056;8.350;2022-12-18T07:46:18;30.53;;;13.73;;
4911;SDS011;2471;47.056;8.350;2022-12-18T07:48:44;32.23;;;13.83;;
4911;SDS011;2471;47.056;8.350;2022-12-18T07:51:10;38.77;;;16.30;;
4911;SDS011;2471;47.056;8.350;2022-12-18T07:53:37;34.00;;;14.43;;
4911;SDS011;2471;47.056;8.350;2022-12-18T07:56:04;37.00;;;14.60;;
4911;SDS011;2471;47.056;8.350;2022-12-18T07:58:30;31.90;;;13.47;;
4911;SDS011;2471;47.056;8.350;2022-12-18T08:01:30;39.60;;;14.10;;
4911;SDS011;2471;47.056;8.350;2022-12-18T08:03:49;35.80;;;13.60;;
4911;SDS011;2471;47.056;8.350;2022-12-18T08:06:15;31.77;;;13.30;;
4911;SDS011;2471;47.056;8.350;2022-12-18T08:08:41;36.13;;;14.63;;
4911;SDS011;2471;47.056;8.350;2022-12-18T08:11:07;45.00;;;14.13;;
4911;SDS011;2471;47.056;8.350;2022-12-18T08:13:33;36.10;;;16.50;;
4911;SDS011;2471;47.056;8.350;2022-12-18T08:16:00;37.20;;;15.50;;
4911;SDS011;2471;47.056;8.350;2022-12-18T08:18:26;43.07;;;18.30;;
4911;SDS011;2471;47.056;8.350;2022-12-18T08:20:52;38.20;;;14.20;;
4911;SDS011;2471;47.056;8.350;2022-12-18T08:23:18;33.93;;;15.47;;
4911;SDS011;2471;47.056;8.350;2022-12-18T08:25:44;34.33;;;14.17;;
4911;SDS011;2471;47.056;8.350;2022-12-18T08:28:10;40.50;;;17.43;;
4911;SDS011;2471;47.056;8.350;2022-12-18T08:30:36;39.67;;;15.07;;
4911;SDS011;2471;47.056;8.350;2022-12-18T08:33:02;36.27;;;15.43;;
4911;SDS011;2471;47.056;8.350;2022-12-18T08:35:28;37.10;;;16.53;;
4911;SDS011;2471;47.056;8.350;2022-12-18T08:37:54;35.60;;;14.77;;
4911;SDS011;2471;47.056;8.350;2022-12-18T08:40:20;37.60;;;15.27;;
4911;SDS011;2471;47.056;8.350;2022-12-18T08:42:46;33.20;;;15.70;;
4911;SDS011;2471;47.056;8.350;2022-12-18T08:45:33;41.13;;;16.57;;
4911;SDS011;2471;47.056;8.350;2022-12-18T08:47:59;42.30;;;16.33;;
4911;SDS011;2471;47.056;8.350;2022-12-18T08:50:25;36.80;;;15.70;;
4911;SDS011;2471;47.056;8.350;2022-12-18T08:52:51;33.63;;;14.63;;
4911;SDS011;2471;47.056;8.350;2022-12-18T08:55:17;42.23;;;17.07;;
4911;SDS011;2471;47.056;8.350;2022-12-18T08:57:49;41.47;;;16.73;;
4911;SDS011;2471;47.056;8.350;2022-12-18T09:00:15;39.80;;;18.17;;
4911;SDS011;2471;47.056;8.350;2022-12-18T09:02:41;41.13;;;16.63;;
4911;SDS011;2471;47.056;8.350;2022-12-18T09:05:07;43.17;;;18.40;;
4911;SDS011;2471;47.056;8.350;2022-12-18T09:07:34;36.00;;;16.27;;
4911;SDS011;2471;47.056;8.350;2022-12-18T09:09:59;42.90;;;17.90;;
4911;SDS011;2471;47.056;8.350;2022-12-18T09:12:25;38.73;;;16.50;;
4911;SDS011;2471;47.056;8.350;2022-12-18T09:14:51;40.30;;;17.30;;
4911;SDS011;2471;47.056;8.350;2022-12-18T09:17:17;36.90;;;16.83;;
4911;SDS011;2471;47.056;8.350;2022-12-18T09:19:43;41.17;;;16.93;;
4911;SDS011;2471;47.056;8.350;2022-12-18T09:22:09;38.10;;;15.63;;
4911;SDS011;2471;47.056;8.350;2022-12-18T09:24:35;41.53;;;16.87;;
4911;SDS011;2471;47.056;8.350;2022-12-18T09:27:01;43.83;;;18.17;;
4911;SDS011;2471;47.056;8.350;2022-12-18T09:29:27;40.83;;;17.40;;
4911;SDS011;2471;47.056;8.350;2022-12-18T09:31:53;42.70;;;18.40;;
4911;SDS011;2471;47.056;8.350;2022-12-18T09:34:19;37.03;;;17.10;;
4911;SDS011;2471;47.056;8.350;2022-12-18T09:36:48;45.03;;;19.83;;
4911;SDS011;2471;47.056;8.350;2022-12-18T09:39:14;38.63;;;18.13;;
4911;SDS011;2471;47.056;8.350;2022-12-18T09:44:11;41.03;;;16.07;;
4911;SDS011;2471;47.056;8.350;2022-12-18T09:46:40;42.07;;;17.70;;
4911;SDS011;2471;47.056;8.350;2022-12-18T09:49:13;42.70;;;17.17;;
4911;SDS011;2471;47.056;8.350;2022-12-18T09:51:45;40.87;;;16.77;;
4911;SDS011;2471;47.056;8.350;2022-12-18T09:54:14;37.23;;;17.70;;
4911;SDS011;2471;47.056;8.350;2022-12-18T09:56:42;44.37;;;16.80;;
4911;SDS011;2471;47.056;8.350;2022-12-18T09:59:27;38.07;;;16.40;;
4911;SDS011;2471;47.056;8.350;2022-12-18T10:01:56;40.83;;;16.33;;
4911;SDS011;2471;47.056;8.350;2022-12-18T10:04:22;43.20;;;17.33;;
4911;SDS011;2471;47.056;8.350;2022-12-18T10:09:34;37.70;;;16.50;;
4911;SDS011;2471;47.056;8.350;2022-12-18T10:12:12;36.20;;;16.20;;
4911;SDS011;2471;47.056;8.350;2022-12-18T10:14:45;40.07;;;16.27;;
4911;SDS011;2471;47.056;8.350;2022-12-18T10:19:40;39.27;;;17.00;;
4911;SDS011;2471;47.056;8.350;2022-12-18T10:25:03;35.03;;;15.27;;
4911;SDS011;2471;47.056;8.350;2022-12-18T10:27:30;33.77;;;15.07;;
4911;SDS011;2471;47.056;8.350;2022-12-18T10:29:56;35.37;;;16.50;;
4911;SDS011;2471;47.056;8.350;2022-12-18T10:32:24;35.20;;;16.90;;
4911;SDS011;2471;47.056;8.350;2022-12-18T10:34:51;43.57;;;17.43;;
4911;SDS011;2471;47.056;8.350;2022-12-18T10:37:19;40.10;;;17.70;;
4911;SDS011;2471;47.056;8.350;2022-12-18T10:39:46;44.83;;;19.13;;
4911;SDS011;2471;47.056;8.350;2022-12-18T10:42:19;38.03;;;17.60;;
4911;SDS011;2471;47.056;8.350;2022-12-18T10:44:45;41.33;;;17.20;;
4911;SDS011;2471;47.056;8.350;2022-12-18T10:47:12;36.17;;;16.87;;
4911;SDS011;2471;47.056;8.350;2022-12-18T10:49:42;37.93;;;16.90;;
4911;SDS011;2471;47.056;8.350;2022-12-18T10:52:15;35.73;;;15.47;;
4911;SDS011;2471;47.056;8.350;2022-12-18T10:54:49;40.33;;;17.60;;
4911;SDS011;2471;47.056;8.350;2022-12-18T10:57:17;36.30;;;17.07;;
4911;SDS011;2471;47.056;8.350;2022-12-18T10:59:53;36.17;;;16.77;;
4911;SDS011;2471;47.056;8.350;2022-12-18T11:02:36;39.80;;;16.73;;
4911;SDS011;2471;47.056;8.350;2022-12-18T11:05:02;37.07;;;18.10;;
4911;SDS011;2471;47.056;8.350;2022-12-18T11:07:48;36.03;;;14.87;;
4911;SDS011;2471;47.056;8.350;2022-12-18T11:10:16;36.80;;;16.33;;
4911;SDS011;2471;47.056;8.350;2022-12-18T11:12:42;32.50;;;15.87;;
4911;SDS011;2471;47.056;8.350;2022-12-18T11:15:15;32.33;;;15.73;;
4911;SDS011;2471;47.056;8.350;2022-12-18T11:17:42;39.03;;;16.97;;
4911;SDS011;2471;47.056;8.350;2022-12-18T11:23:05;40.00;;;17.40;;
4911;SDS011;2471;47.056;8.350;2022-12-18T11:25:32;36.27;;;16.23;;
4911;SDS011;2471;47.056;8.350;2022-12-18T11:27:59;35.40;;;14.27;;
4911;SDS011;2471;47.056;8.350;2022-12-18T11:32:59;38.73;;;17.00;;
4911;SDS011;2471;47.056;8.350;2022-12-18T11:40:42;33.60;;;14.83;;
4911;SDS011;2471;47.056;8.350;2022-12-18T11:43:14;29.93;;;15.47;;
4911;SDS011;2471;47.056;8.350;2022-12-18T11:48:48;36.80;;;15.97;;
4911;SDS011;2471;47.056;8.350;2022-12-18T11:51:18;41.50;;;16.77;;
4911;SDS011;2471;47.056;8.350;2022-12-18T11:53:46;37.03;;;16.60;;
4911;SDS011;2471;47.056;8.350;2022-12-18T11:56:43;39.60;;;16.97;;
4911;SDS011;2471;47.056;8.350;2022-12-18T11:59:23;40.50;;;17.93;;
4911;SDS011;2471;47.056;8.350;2022-12-18T12:02:01;36.67;;;15.90;;
4911;SDS011;2471;47.056;8.350;2022-12-18T12:07:07;39.57;;;16.83;;
4911;SDS011;2471;47.056;8.350;2022-12-18T12:12:10;37.67;;;16.70;;
4911;SDS011;2471;47.056;8.350;2022-12-18T12:14:54;37.93;;;15.83;;
4911;SDS011;2471;47.056;8.350;2022-12-18T12:33:02;38.93;;;16.90;;
4911;SDS011;2471;47.056;8.350;2022-12-18T12:35:36;48.17;;;18.57;;
4911;SDS011;2471;47.056;8.350;2022-12-18T12:40:38;39.07;;;18.27;;
4911;SDS011;2471;47.056;8.350;2022-12-18T12:43:10;41.57;;;16.23;;
4911;SDS011;2471;47.056;8.350;2022-12-18T12:48:21;46.43;;;17.83;;
4911;SDS011;2471;47.056;8.350;2022-12-18T12:50:49;41.33;;;16.97;;
4911;SDS011;2471;47.056;8.350;2022-12-18T12:53:23;42.17;;;17.27;;
4911;SDS011;2471;47.056;8.350;2022-12-18T12:55:51;39.90;;;18.00;;
4911;SDS011;2471;47.056;8.350;2022-12-18T12:58:29;43.33;;;17.90;;
4911;SDS011;2471;47.056;8.350;2022-12-18T13:06:17;43.70;;;18.60;;
4911;SDS011;2471;47.056;8.350;2022-12-18T13:09:18;40.00;;;18.10;;
4911;SDS011;2471;47.056;8.350;2022-12-18T13:11:41;42.43;;;18.00;;
4911;SDS011;2471;47.056;8.350;2022-12-18T13:14:28;39.70;;;17.80;;
4911;SDS011;2471;47.056;8.350;2022-12-18T13:19:39;51.57;;;21.13;;
4911;SDS011;2471;47.056;8.350;2022-12-18T13:22:12;43.73;;;19.00;;
4911;SDS011;2471;47.056;8.350;2022-12-18T13:24:45;45.03;;;20.10;;
4911;SDS011;2471;47.056;8.350;2022-12-18T13:29:56;43.10;;;18.27;;
4911;SDS011;2471;47.056;8.350;2022-12-18T13:32:22;49.13;;;18.53;;
4911;SDS011;2471;47.056;8.350;2022-12-18T13:34:55;46.07;;;19.37;;
4911;SDS011;2471;47.056;8.350;2022-12-18T13:37:39;44.23;;;18.37;;
4911;SDS011;2471;47.056;8.350;2022-12-18T13:42:50;43.10;;;18.30;;
4911;SDS011;2471;47.056;8.350;2022-12-18T13:45:37;40.37;;;18.40;;
4911;SDS011;2471;47.056;8.350;2022-12-18T13:48:03;45.93;;;21.00;;
4911;SDS011;2471;47.056;8.350;2022-12-18T13:50:29;43.20;;;18.10;;
4911;SDS011;2471;47.056;8.350;2022-12-18T13:52:56;36.70;;;16.57;;
4911;SDS011;2471;47.056;8.350;2022-12-18T13:55:23;35.57;;;15.80;;
4911;SDS011;2471;47.056;8.350;2022-12-18T13:57:49;30.37;;;15.30;;
4911;SDS011;2471;47.056;8.350;2022-12-18T14:02:50;38.63;;;16.20;;
4911;SDS011;2471;47.056;8.350;2022-12-18T14:07:54;49.37;;;17.57;;
4911;SDS011;2471;47.056;8.350;2022-12-18T14:10:20;42.87;;;16.10;;
4911;SDS011;2471;47.056;8.350;2022-12-18T14:12:47;35.87;;;15.20;;
4911;SDS011;2471;47.056;8.350;2022-12-18T14:17:51;29.23;;;14.70;;
4911;SDS011;2471;47.056;8.350;2022-12-18T14:20:18;43.23;;;18.07;;
4911;SDS011;2471;47.056;8.350;2022-12-18T14:22:45;36.40;;;17.40;;
4911;SDS011;2471;47.056;8.350;2022-12-18T14:27:44;36.43;;;17.70;;
4911;SDS011;2471;47.056;8.350;2022-12-18T14:30:24;34.57;;;15.90;;
4911;SDS011;2471;47.056;8.350;2022-12-18T14:33:13;40.10;;;18.07;;
4911;SDS011;2471;47.056;8.350;2022-12-18T14:35:51;44.97;;;18.30;;
4911;SDS011;2471;47.056;8.350;2022-12-18T14:38:30;33.03;;;15.33;;
4911;SDS011;2471;47.056;8.350;2022-12-18T14:40:59;37.07;;;17.30;;
4911;SDS011;2471;47.056;8.350;2022-12-18T14:43:26;34.60;;;15.63;;
4911;SDS011;2471;47.056;8.350;2022-12-18T14:45:53;33.87;;;15.20;;
4911;SDS011;2471;47.056;8.350;2022-12-18T14:48:20;42.20;;;17.43;;
4911;SDS011;2471;47.056;8.350;2022-12-18T14:51:21;38.43;;;16.03;;
4911;SDS011;2471;47.056;8.350;2022-12-18T14:53:40;34.63;;;16.70;;
4911;SDS011;2471;47.056;8.350;2022-12-18T14:56:23;36.67;;;16.90;;
4911;SDS011;2471;47.056;8.350;2022-12-18T14:58:56;40.30;;;17.00;;
4911;SDS011;2471;47.056;8.350;2022-12-18T15:01:24;37.37;;;16.90;;
4911;SDS011;2471;47.056;8.350;2022-12-18T15:03:51;35.70;;;15.10;;
4911;SDS011;2471;47.056;8.350;2022-12-18T15:06:39;31.73;;;15.70;;
4911;SDS011;2471;47.056;8.350;2022-12-18T15:09:20;37.43;;;17.63;;
4911;SDS011;2471;47.056;8.350;2022-12-18T15:11:47;33.43;;;15.40;;
4911;SDS011;2471;47.056;8.350;2022-12-18T15:16:54;34.73;;;16.97;;
4911;SDS011;2471;47.056;8.350;2022-12-18T15:19:21;31.80;;;13.87;;
4911;SDS011;2471;47.056;8.350;2022-12-18T15:21:48;32.50;;;15.23;;
4911;SDS011;2471;47.056;8.350;2022-12-18T15:24:18;34.47;;;14.53;;
4911;SDS011;2471;47.056;8.350;2022-12-18T15:26:44;34.80;;;16.50;;
4911;SDS011;2471;47.056;8.350;2022-12-18T15:29:20;30.83;;;14.80;;
4911;SDS011;2471;47.056;8.350;2022-12-18T15:32:03;28.53;;;15.00;;
4911;SDS011;2471;47.056;8.350;2022-12-18T15:34:30;30.83;;;14.87;;
4911;SDS011;2471;47.056;8.350;2022-12-18T15:36:56;34.07;;;16.00;;
4911;SDS011;2471;47.056;8.350;2022-12-18T15:39:22;30.50;;;15.77;;
4911;SDS011;2471;47.056;8.350;2022-12-18T15:41:48;36.83;;;16.60;;
4911;SDS011;2471;47.056;8.350;2022-12-18T15:44:33;34.77;;;16.70;;
4911;SDS011;2471;47.056;8.350;2022-12-18T15:46:59;30.10;;;15.07;;
4911;SDS011;2471;47.056;8.350;2022-12-18T15:49:25;27.97;;;14.90;;
4911;SDS011;2471;47.056;8.350;2022-12-18T15:51:52;32.60;;;15.47;;
4911;SDS011;2471;47.056;8.350;2022-12-18T15:54:19;35.67;;;15.33;;
4911;SDS011;2471;47.056;8.350;2022-12-18T15:57:07;35.43;;;14.80;;
4911;SDS011;2471;47.056;8.350;2022-12-18T15:59:52;38.63;;;16.47;;
4911;SDS011;2471;47.056;8.350;2022-12-18T16:02:19;32.80;;;15.00;;
4911;SDS011;2471;47.056;8.350;2022-12-18T16:04:47;32.73;;;15.17;;
4911;SDS011;2471;47.056;8.350;2022-12-18T16:07:13;31.40;;;14.00;;
4911;SDS011;2471;47.056;8.350;2022-12-18T16:09:39;32.67;;;15.07;;
4911;SDS011;2471;47.056;8.350;2022-12-18T16:12:06;39.93;;;16.10;;
4911;SDS011;2471;47.056;8.350;2022-12-18T16:14:32;35.60;;;15.40;;
4911;SDS011;2471;47.056;8.350;2022-12-18T16:16:59;31.87;;;14.80;;
4911;SDS011;2471;47.056;8.350;2022-12-18T16:19:25;31.67;;;14.60;;
4911;SDS011;2471;47.056;8.350;2022-12-18T16:21:52;30.57;;;15.03;;
4911;SDS011;2471;47.056;8.350;2022-12-18T16:24:23;35.50;;;15.57;;
4911;SDS011;2471;47.056;8.350;2022-12-18T16:26:50;37.13;;;16.70;;
4911;SDS011;2471;47.056;8.350;2022-12-18T16:29:16;33.10;;;15.57;;
4911;SDS011;2471;47.056;8.350;2022-12-18T16:31:42;36.03;;;17.13;;
4911;SDS011;2471;47.056;8.350;2022-12-18T16:34:09;30.27;;;15.47;;